createdAt,value
2023-04-21T00:02:08.211Z,17.95
2023-04-21T00:05:03.334Z,17.98
2023-04-21T00:07:50.140Z,17.70
2023-04-21T00:10:23.285Z,17.23
2023-04-21T00:13:10.139Z,17.55
2023-04-21T00:15:43.288Z,17.90
2023-04-21T00:18:30.150Z,17.75
2023-04-21T00:21:04.287Z,18.23
2023-04-21T00:23:51.138Z,16.98
2023-04-21T00:26:24.511Z,16.77
2023-04-21T00:29:11.170Z,15.95
2023-04-21T00:31:44.308Z,17.50
2023-04-21T00:34:31.187Z,16.92
2023-04-21T00:37:11.175Z,17.17
2023-04-21T00:39:58.177Z,15.68
2023-04-21T00:42:39.170Z,16.00
2023-04-21T00:45:26.197Z,17.25
2023-04-21T00:47:59.636Z,18.27
2023-04-21T00:50:46.154Z,18.23
2023-04-21T00:53:28.174Z,18.27
2023-04-21T00:56:15.176Z,18.77
2023-04-21T00:58:49.971Z,19.35
2023-04-21T01:01:38.159Z,18.73
2023-04-21T01:04:19.205Z,19.02
2023-04-21T01:07:06.144Z,18.98
2023-04-21T01:09:47.177Z,18.77
2023-04-21T01:12:42.163Z,18.48
2023-04-21T01:15:29.179Z,17.73
2023-04-21T01:18:04.639Z,17.92
2023-04-21T01:20:51.172Z,17.77
2023-04-21T01:23:24.313Z,17.23
2023-04-21T01:26:11.174Z,17.15
2023-04-21T01:28:44.345Z,16.63
2023-04-21T01:31:31.228Z,19.25
2023-04-21T01:34:06.337Z,19.02
2023-04-21T01:36:55.920Z,20.42
2023-04-21T01:39:29.301Z,19.35
2023-04-21T01:42:17.183Z,18.15
2023-04-21T01:44:50.360Z,18.77
2023-04-21T01:47:37.320Z,19.85
2023-04-21T01:50:18.166Z,19.90
2023-04-21T01:53:12.155Z,18.77
2023-04-21T01:55:59.239Z,18.38
2023-04-21T01:58:32.505Z,19.60
2023-04-21T02:01:19.226Z,19.88
2023-04-21T02:03:52.522Z,18.88
2023-04-21T02:06:39.189Z,19.33
2023-04-21T02:09:19.382Z,19.23
2023-04-21T02:12:07.255Z,19.13
2023-04-21T02:14:40.388Z,20.13
2023-04-21T02:17:27.272Z,19.60
2023-04-21T02:20:07.248Z,19.27
2023-04-21T02:22:54.185Z,19.77
2023-04-21T02:25:28.157Z,19.50
2023-04-21T02:28:15.225Z,20.83
2023-04-21T02:30:55.251Z,19.05
2023-04-21T02:33:52.160Z,18.50
2023-04-21T02:36:39.243Z,19.42
2023-04-21T02:39:19.441Z,17.88
2023-04-21T02:42:13.256Z,18.30
2023-04-21T02:45:00.210Z,18.15
2023-04-21T02:47:33.374Z,17.52
2023-04-21T02:50:20.236Z,16.92
2023-04-21T02:52:53.314Z,16.63
2023-04-21T02:55:40.242Z,18.42
2023-04-21T02:58:13.324Z,16.85
2023-04-21T03:01:00.353Z,17.75
2023-04-21T03:03:33.598Z,18.40
2023-04-21T03:06:21.225Z,17.60
2023-04-21T03:08:56.348Z,17.67
2023-04-21T03:11:43.229Z,17.50
2023-04-21T03:14:16.369Z,16.85
2023-04-21T03:17:03.223Z,17.70
2023-04-21T03:19:36.309Z,17.67
2023-04-21T03:22:23.215Z,18.02
2023-04-21T03:25:03.219Z,16.58
2023-04-21T03:27:50.207Z,16.65
2023-04-21T03:30:30.208Z,16.50
2023-04-21T03:33:24.212Z,22.10
2023-04-21T03:36:11.271Z,18.13
2023-04-21T03:38:44.308Z,18.00
2023-04-21T03:41:33.516Z,18.30
2023-04-21T03:44:07.349Z,15.65
2023-04-21T03:46:54.251Z,16.73
2023-04-21T03:49:28.377Z,15.90
2023-04-21T03:52:15.220Z,16.00
2023-04-21T03:54:48.373Z,15.63
2023-04-21T03:57:37.284Z,15.32
2023-04-21T04:00:11.396Z,15.90
2023-04-21T04:02:58.356Z,16.23
2023-04-21T04:05:38.475Z,15.68
2023-04-21T04:08:32.225Z,15.20
2023-04-21T04:11:21.568Z,16.63
2023-04-21T04:14:01.371Z,18.05
2023-04-21T04:16:48.230Z,17.08
2023-04-21T04:19:21.663Z,18.05
2023-04-21T04:22:23.276Z,17.45
2023-04-21T04:25:17.269Z,18.02
2023-04-21T04:28:04.229Z,17.83
2023-04-21T04:30:44.226Z,17.02
2023-04-21T04:33:38.245Z,15.20
2023-04-21T04:36:27.289Z,15.70
2023-04-21T04:39:00.332Z,17.58
2023-04-21T04:41:48.227Z,17.52
2023-04-21T04:44:30.226Z,17.00
2023-04-21T04:47:17.292Z,15.50
2023-04-21T04:49:59.544Z,16.15
2023-04-21T04:52:54.256Z,15.35
2023-04-21T04:55:41.270Z,15.35
2023-04-21T04:58:21.265Z,15.10
2023-04-21T05:01:36.284Z,15.43
2023-04-21T05:04:23.905Z,15.35
2023-04-21T05:06:57.330Z,15.68
2023-04-21T05:09:44.278Z,16.02
2023-04-21T05:12:17.343Z,16.30
2023-04-21T05:15:04.255Z,13.68
2023-04-21T05:17:37.429Z,14.80
2023-04-21T05:20:24.255Z,14.88
2023-04-21T05:22:57.329Z,14.93
2023-04-21T05:25:51.263Z,15.25
2023-04-21T05:28:45.305Z,15.80
2023-04-21T05:31:32.274Z,15.82
2023-04-21T05:34:12.291Z,16.48
2023-04-21T05:36:59.280Z,17.20
2023-04-21T05:39:34.364Z,16.70
2023-04-21T05:42:21.270Z,17.42
2023-04-21T05:45:01.289Z,15.80
2023-04-21T05:47:55.307Z,15.05
2023-04-21T05:50:49.264Z,16.60
2023-04-21T05:53:36.263Z,16.33
2023-04-21T05:56:16.238Z,15.95
2023-04-21T05:59:10.274Z,15.95
2023-04-21T06:01:57.285Z,17.95
2023-04-21T06:04:37.432Z,19.30
2023-04-21T06:07:25.286Z,16.70
2023-04-21T06:09:58.487Z,17.92
2023-04-21T06:12:45.263Z,18.13
2023-04-21T06:15:25.281Z,19.20
2023-04-21T06:18:12.316Z,18.17
2023-04-21T06:20:52.281Z,18.67
2023-04-21T06:23:39.284Z,18.30
2023-04-21T06:26:14.394Z,16.17
2023-04-21T06:29:01.283Z,15.50
2023-04-21T06:31:41.304Z,13.95
2023-04-21T06:34:35.261Z,13.90
2023-04-21T06:37:31.338Z,16.85
2023-04-21T06:40:25.424Z,15.40
2023-04-21T06:43:19.290Z,15.35
2023-04-21T06:46:13.285Z,15.80
2023-04-21T06:49:07.308Z,16.30
2023-04-21T06:51:54.284Z,16.48
2023-04-21T06:54:27.455Z,17.23
2023-04-21T06:57:14.320Z,15.60
2023-04-21T06:59:47.395Z,15.73
2023-04-21T07:02:34.366Z,15.68
2023-04-21T07:05:14.295Z,15.50
2023-04-21T07:08:08.336Z,15.60
2023-04-21T07:10:55.302Z,17.58
2023-04-21T07:13:35.318Z,17.80
2023-04-21T07:16:22.362Z,18.98
2023-04-21T07:19:02.307Z,16.05
2023-04-21T07:21:56.318Z,14.52
2023-04-21T07:24:44.294Z,15.82
2023-04-21T07:27:38.323Z,14.93
2023-04-21T07:30:32.336Z,16.85
2023-04-21T07:33:20.309Z,17.25
2023-04-21T07:35:53.505Z,17.17
2023-04-21T07:38:40.306Z,16.55
2023-04-21T07:41:20.378Z,17.70
2023-04-21T07:44:07.328Z,14.73
2023-04-21T07:46:47.329Z,16.15
2023-04-21T07:49:41.330Z,16.33
2023-04-21T07:52:28.328Z,16.33
2023-04-21T07:55:01.434Z,16.98
2023-04-21T07:57:48.315Z,16.77
2023-04-21T08:00:22.421Z,16.98
2023-04-21T08:03:09.481Z,18.08
2023-04-21T08:05:43.566Z,16.77
2023-04-21T08:08:31.968Z,16.17
2023-04-21T08:11:05.574Z,17.05
2023-04-21T08:13:52.365Z,18.27
2023-04-21T08:16:32.339Z,17.73
2023-04-21T08:19:26.338Z,16.95
2023-04-21T08:22:20.347Z,17.10
2023-04-21T08:25:14.334Z,17.02
2023-04-21T08:28:08.376Z,16.25
2023-04-21T08:30:55.356Z,17.15
2023-04-21T08:33:28.439Z,15.25
2023-04-21T08:36:26.151Z,16.30
2023-04-21T08:39:09.356Z,16.70
2023-04-21T08:41:57.389Z,15.82
2023-04-21T08:44:30.461Z,16.85
2023-04-21T08:47:18.378Z,16.55
2023-04-21T08:49:58.353Z,17.55
2023-04-21T08:52:45.383Z,16.77
2023-04-21T08:55:26.357Z,16.42
2023-04-21T08:58:20.461Z,15.55
2023-04-21T09:01:14.391Z,18.30
2023-04-21T09:04:01.436Z,15.05
2023-04-21T09:06:47.607Z,18.98
2023-04-21T09:09:34.400Z,19.38
2023-04-21T09:12:15.391Z,18.27
2023-04-21T09:15:04.371Z,19.55
2023-04-21T09:17:38.764Z,19.60
2023-04-21T09:20:28.385Z,20.65
2023-04-21T09:23:08.377Z,19.30
2023-04-21T09:26:02.417Z,19.48
2023-04-21T09:28:51.382Z,19.63
2023-04-21T09:31:29.663Z,19.50
2023-04-21T09:34:31.384Z,20.20
2023-04-21T09:37:09.474Z,19.15
2023-04-21T09:40:04.281Z,20.23
2023-04-21T09:42:40.980Z,19.00
2023-04-21T09:45:40.342Z,19.92
2023-04-21T09:48:24.420Z,21.05
2023-04-21T09:54:29.666Z,19.30
2023-04-21T09:57:16.390Z,19.85
2023-04-21T10:00:18.428Z,18.10
2023-04-21T10:03:11.647Z,19.63
2023-04-21T10:05:45.530Z,19.63
2023-04-21T10:08:32.390Z,19.05
2023-04-21T10:11:07.552Z,19.48
2023-04-21T10:13:54.412Z,18.90
2023-04-21T10:16:27.716Z,19.60
2023-04-21T10:19:34.573Z,19.60
2023-04-21T10:22:08.259Z,20.15
2023-04-21T10:24:49.418Z,18.50
2023-04-21T10:27:51.424Z,19.40
2023-04-21T10:30:45.460Z,19.92
2023-04-21T10:33:34.557Z,20.27
2023-04-21T10:36:08.561Z,20.13
2023-04-21T10:39:05.411Z,17.83
2023-04-21T10:41:47.463Z,18.75
2023-04-21T10:44:42.428Z,17.45
2023-04-21T10:47:33.459Z,17.52
2023-04-21T10:50:18.644Z,17.75
2023-04-21T10:53:25.424Z,18.50
2023-04-21T10:56:06.490Z,18.58
2023-04-21T10:58:53.427Z,21.05
2023-04-21T11:01:26.583Z,18.30
2023-04-21T11:04:13.723Z,19.75
2023-04-21T11:06:54.416Z,18.20
2023-04-21T11:09:42.437Z,18.10
2023-04-21T11:12:21.544Z,20.15
2023-04-21T11:15:12.428Z,16.92
2023-04-21T11:17:52.533Z,18.77
2023-04-21T11:20:47.443Z,18.88
2023-04-21T11:23:41.449Z,16.20
2023-04-21T11:26:50.451Z,15.38
2023-04-21T11:29:37.446Z,14.32
2023-04-21T11:32:15.660Z,16.48
2023-04-21T11:35:02.471Z,15.93
2023-04-21T11:37:35.563Z,14.73
2023-04-21T11:40:22.446Z,15.80
2023-04-21T11:42:55.563Z,15.30
2023-04-21T11:45:43.448Z,15.25
2023-04-21T11:48:29.501Z,14.43
2023-04-21T11:51:31.471Z,14.88
2023-04-21T11:54:20.461Z,15.18
2023-04-21T11:56:54.577Z,14.63
2023-04-21T11:59:41.464Z,15.25
2023-04-21T12:02:20.645Z,16.08
2023-04-21T12:05:11.498Z,15.07
2023-04-21T12:07:52.308Z,14.52
2023-04-21T12:10:39.481Z,15.25
2023-04-21T12:13:12.555Z,15.07
2023-04-21T12:15:59.562Z,15.48
2023-04-21T12:18:38.591Z,14.23
2023-04-21T12:21:25.482Z,13.23
2023-04-21T12:23:58.724Z,13.90
2023-04-21T12:26:52.466Z,13.30
2023-04-21T12:29:46.477Z,13.98
2023-04-21T12:32:33.551Z,14.10
2023-04-21T12:35:06.593Z,13.52
2023-04-21T12:37:53.497Z,13.40
2023-04-21T12:40:27.233Z,13.90
2023-04-21T12:43:14.480Z,14.10
2023-04-21T12:45:54.602Z,14.10
2023-04-21T12:48:41.506Z,16.35
2023-04-21T12:51:14.704Z,14.10
2023-04-21T12:54:01.505Z,14.02
2023-04-21T12:56:41.543Z,14.68
2023-04-21T12:59:35.489Z,14.10
2023-04-21T13:02:22.662Z,12.88
2023-04-21T13:04:56.584Z,13.90
2023-04-21T13:07:43.512Z,13.93
2023-04-21T13:10:16.659Z,14.15
2023-04-21T13:13:03.529Z,14.70
2023-04-21T13:15:43.521Z,14.20
2023-04-21T13:18:37.482Z,13.25
2023-04-21T13:21:24.524Z,13.90
2023-04-21T13:24:04.500Z,14.18
2023-04-21T13:26:58.536Z,14.35
2023-04-21T13:29:53.506Z,13.77
2023-04-21T13:32:47.549Z,14.45
2023-04-21T13:35:34.526Z,13.05
2023-04-21T13:38:07.754Z,13.55
2023-04-21T13:40:55.530Z,14.65
2023-04-21T13:43:28.617Z,13.63
2023-04-21T13:46:15.576Z,14.43
2023-04-21T13:48:56.512Z,14.73
2023-04-21T13:51:43.523Z,13.57
2023-04-21T13:54:16.701Z,14.90
2023-04-21T13:57:03.562Z,15.10
2023-04-21T13:59:43.530Z,14.90
2023-04-21T14:02:37.664Z,13.20
2023-04-21T14:05:24.696Z,14.02
2023-04-21T14:08:04.545Z,16.73
2023-04-21T14:10:58.545Z,15.77
2023-04-21T14:14:00.829Z,13.90
2023-04-21T14:16:45.564Z,14.82
2023-04-21T14:19:39.553Z,19.92
2023-04-21T14:22:27.530Z,15.65
2023-04-21T14:25:07.555Z,14.10
2023-04-21T14:28:01.529Z,14.10
2023-04-21T14:30:49.542Z,15.23
2023-04-21T14:33:22.725Z,17.13
2023-04-21T14:36:09.526Z,13.70
2023-04-21T14:38:43.240Z,13.82
2023-04-21T14:41:29.591Z,18.45
2023-04-21T14:44:03.923Z,12.95
2023-04-21T14:46:57.373Z,11.52
2023-04-21T14:49:34.900Z,12.30
2023-04-21T14:52:21.561Z,13.45
2023-04-21T14:55:01.573Z,11.77
2023-04-21T14:57:55.573Z,12.38
2023-04-21T15:00:43.579Z,13.20
2023-04-21T15:03:16.744Z,12.50
2023-04-21T15:06:03.599Z,12.05
2023-04-21T15:08:43.563Z,12.70
2023-04-21T15:11:30.576Z,12.60
2023-04-21T15:14:10.586Z,12.63
2023-04-21T15:17:04.636Z,12.90
2023-04-21T15:19:51.618Z,12.80
2023-04-21T15:22:25.672Z,13.13
2023-04-21T15:25:12.586Z,11.57
2023-04-21T15:27:46.069Z,12.02
2023-04-21T15:30:32.577Z,12.40
2023-04-21T15:33:05.765Z,12.93
2023-04-21T15:35:54.576Z,15.52
2023-04-21T15:38:27.820Z,18.63
2023-04-21T15:41:15.615Z,12.55
2023-04-21T15:43:48.745Z,14.45
2023-04-21T15:46:35.623Z,14.73
2023-04-21T15:49:15.614Z,14.10
2023-04-21T15:52:11.680Z,14.50
2023-04-21T15:54:58.622Z,18.83
2023-04-21T15:57:31.735Z,14.27
2023-04-21T16:00:19.648Z,14.40
2023-04-21T16:02:53.921Z,14.10
2023-04-21T16:05:40.661Z,14.32
2023-04-21T16:08:13.734Z,13.50
2023-04-21T16:11:00.701Z,29.00
2023-04-21T16:13:41.587Z,16.60
2023-04-21T16:16:35.664Z,15.40
2023-04-21T16:19:22.614Z,13.82
2023-04-21T16:22:02.785Z,14.07
2023-04-21T16:24:49.627Z,13.75
2023-04-21T16:27:29.610Z,15.18
2023-04-21T16:30:16.601Z,16.50
2023-04-21T16:32:49.717Z,15.27
2023-04-21T16:35:36.711Z,16.35
2023-04-21T16:38:17.655Z,15.90
2023-04-21T16:41:11.649Z,15.00
2023-04-21T16:44:05.619Z,14.13
2023-04-21T16:46:52.739Z,13.50
2023-04-21T16:49:32.780Z,14.15
2023-04-21T16:52:19.639Z,13.50
2023-04-21T16:54:52.744Z,12.70
2023-04-21T16:57:40.702Z,15.05
2023-04-21T17:00:14.707Z,15.90
2023-04-21T17:03:01.795Z,16.90
2023-04-21T17:05:34.737Z,18.70
2023-04-21T17:08:21.640Z,17.23
2023-04-21T17:11:01.621Z,16.27
2023-04-21T17:13:48.634Z,15.77
2023-04-21T17:16:21.797Z,15.10
2023-04-21T17:19:08.603Z,15.02
2023-04-21T17:21:48.649Z,14.93
2023-04-21T17:24:52.307Z,14.77
2023-04-21T17:27:49.756Z,14.57
2023-04-21T17:30:36.640Z,15.10
2023-04-21T17:36:03.127Z,15.40
2023-04-21T17:38:36.833Z,15.52
2023-04-21T17:41:23.640Z,15.73
2023-04-21T17:43:56.739Z,16.50
2023-04-21T17:46:43.812Z,20.42
2023-04-21T17:49:18.240Z,20.05
2023-04-21T17:52:04.622Z,18.65
2023-04-21T17:54:37.939Z,23.20
2023-04-21T17:57:24.645Z,17.55
2023-04-21T18:00:04.648Z,15.95
2023-04-21T18:02:51.718Z,16.00
2023-04-21T18:05:24.766Z,14.73
2023-04-21T18:08:11.647Z,16.50
2023-04-21T18:10:44.737Z,16.33
2023-04-21T18:13:31.658Z,17.02
2023-04-21T18:16:04.897Z,16.73
2023-04-21T18:18:53.657Z,16.92
2023-04-21T18:21:28.228Z,16.77
2023-04-21T18:24:14.645Z,17.63
2023-04-21T18:26:47.777Z,16.30
2023-04-21T18:29:34.692Z,17.02
2023-04-21T18:32:07.884Z,17.80
2023-04-21T18:34:54.664Z,20.50
2023-04-21T18:37:27.782Z,19.77
2023-04-21T18:40:15.677Z,19.80
2023-04-21T18:42:55.654Z,18.73
2023-04-21T18:45:42.688Z,19.35
2023-04-21T18:48:22.692Z,20.00
2023-04-21T18:51:09.659Z,22.20
2023-04-21T18:53:49.688Z,20.85
2023-04-21T18:56:37.673Z,20.23
2023-04-21T18:59:17.695Z,19.58
2023-04-21T19:02:12.754Z,19.17
2023-04-21T19:04:59.690Z,23.17
2023-04-21T19:07:39.679Z,21.00
2023-04-21T19:10:27.666Z,21.88
2023-04-21T19:13:00.826Z,25.10
2023-04-21T19:15:47.703Z,38.63
2023-04-21T19:18:20.881Z,38.22
2023-04-21T19:21:07.716Z,31.63
2023-04-21T19:23:40.771Z,26.88
2023-04-21T19:26:34.692Z,23.00
2023-04-21T19:29:21.658Z,22.92
2023-04-21T19:31:54.939Z,22.52
2023-04-21T19:34:41.684Z,20.08
2023-04-21T19:37:14.832Z,18.27
2023-04-21T19:40:01.688Z,18.27
2023-04-21T19:42:34.793Z,28.45
2023-04-21T19:45:21.700Z,25.50
2023-04-21T19:47:54.902Z,25.35
2023-04-21T19:50:42.711Z,22.65
2023-04-21T19:53:15.874Z,23.20
2023-04-21T19:56:02.685Z,22.42
2023-04-21T19:58:40.634Z,19.80
2023-04-21T20:01:27.734Z,20.58
2023-04-21T20:04:01.103Z,18.23
2023-04-21T20:06:47.697Z,17.17
2023-04-21T20:09:20.889Z,17.02
2023-04-21T20:12:07.717Z,16.38
2023-04-21T20:14:47.708Z,16.25
2023-04-21T20:17:35.733Z,21.33
2023-04-21T20:20:09.496Z,20.40
2023-04-21T20:22:56.728Z,19.42
2023-04-21T20:25:36.723Z,17.63
2023-04-21T20:28:30.707Z,17.27
2023-04-21T20:31:17.727Z,18.30
2023-04-21T20:33:57.705Z,16.15
2023-04-21T20:36:44.730Z,15.90
2023-04-21T20:39:19.056Z,16.77
2023-04-21T20:42:12.989Z,16.83
2023-04-21T20:44:48.193Z,16.60
2023-04-21T20:47:35.719Z,19.38
2023-04-21T20:50:09.026Z,19.75
2023-04-21T20:52:56.717Z,18.17
2023-04-21T20:55:36.743Z,19.10
2023-04-21T20:58:31.757Z,17.38
2023-04-21T21:01:19.789Z,17.20
2023-04-21T21:03:59.887Z,18.45
2023-04-21T21:06:46.703Z,17.67
2023-04-21T21:09:26.736Z,17.05
2023-04-21T21:12:13.735Z,17.83
2023-04-21T21:14:47.015Z,17.40
2023-04-21T21:17:33.783Z,17.65
2023-04-21T21:20:07.215Z,21.63
2023-04-21T21:22:53.747Z,20.42
2023-04-21T21:25:26.932Z,19.20
2023-04-21T21:28:13.763Z,19.60
2023-04-21T21:30:46.842Z,19.88
2023-04-21T21:33:33.729Z,19.30
2023-04-21T21:36:13.743Z,18.23
2023-04-21T21:39:00.745Z,19.20
2023-04-21T21:41:40.713Z,19.58
2023-04-21T21:44:27.731Z,19.27
2023-04-21T21:47:07.791Z,18.90
2023-04-21T21:50:02.750Z,19.08
2023-04-21T21:52:49.742Z,18.25
2023-04-21T21:55:29.761Z,18.50
2023-04-21T21:58:16.738Z,17.65
2023-04-21T22:00:52.014Z,19.25
2023-04-21T22:03:39.049Z,17.08
2023-04-21T22:06:16.299Z,18.00
2023-04-21T22:09:03.749Z,17.10
2023-04-21T22:11:37.133Z,17.20
2023-04-21T22:14:24.292Z,16.27
2023-04-21T22:16:57.878Z,16.65
2023-04-21T22:19:47.773Z,18.52
2023-04-21T22:22:20.910Z,17.80
2023-04-21T22:25:07.769Z,16.60
2023-04-21T22:27:47.795Z,17.17
2023-04-21T22:30:34.755Z,17.13
2023-04-21T22:33:07.948Z,17.77
2023-04-21T22:35:54.766Z,18.55
2023-04-21T22:38:34.752Z,18.38
2023-04-21T22:41:28.757Z,17.13
2023-04-21T22:44:22.801Z,18.52
2023-04-21T22:47:16.908Z,17.85
2023-04-21T22:50:03.773Z,17.55
2023-04-21T22:52:36.928Z,18.10
2023-04-21T22:55:23.772Z,17.50
2023-04-21T22:57:56.917Z,17.13
2023-04-21T23:00:43.822Z,17.15
2023-04-21T23:03:17.108Z,16.70
2023-04-21T23:06:03.790Z,17.20
2023-04-21T23:08:36.978Z,16.25
2023-04-21T23:11:23.780Z,16.73
2023-04-21T23:13:56.912Z,17.02
2023-04-21T23:16:43.843Z,17.33
2023-04-21T23:19:16.915Z,16.55
2023-04-21T23:22:03.787Z,17.00
2023-04-21T23:24:36.985Z,17.35
2023-04-21T23:27:30.796Z,16.70
2023-04-21T23:30:18.785Z,16.88
2023-04-21T23:32:58.841Z,17.35
2023-04-21T23:35:45.793Z,16.52
2023-04-21T23:38:19.138Z,16.75
2023-04-21T23:41:05.797Z,16.50
2023-04-21T23:43:45.788Z,16.00
2023-04-21T23:46:39.875Z,17.80
2023-04-21T23:49:26.772Z,17.80
2023-04-21T23:52:06.802Z,16.55
2023-04-21T23:54:53.786Z,17.27
2023-04-21T23:57:26.897Z,16.88
